sensor_id;sensor_type;location;lat;lon;timestamp;P1;durP1;ratioP1;P2;durP2;ratioP2
16826;SDS011;8530;49.540;8.576;2022-10-17T00:00:52;8.87;;;7.63;;
16826;SDS011;8530;49.540;8.576;2022-10-17T00:03:18;12.47;;;7.70;;
16826;SDS011;8530;49.540;8.576;2022-10-17T00:05:45;15.63;;;7.53;;
16826;SDS011;8530;49.540;8.576;2022-10-17T00:08:15;13.40;;;7.20;;
16826;SDS011;8530;49.540;8.576;2022-10-17T00:10:43;9.93;;;7.63;;
16826;SDS011;8530;49.540;8.576;2022-10-17T00:13:11;7.60;;;6.57;;
16826;SDS011;8530;49.540;8.576;2022-10-17T00:15:41;9.87;;;7.87;;
16826;SDS011;8530;49.540;8.576;2022-10-17T00:18:09;10.97;;;7.47;;
16826;SDS011;8530;49.540;8.576;2022-10-17T00:20:36;13.27;;;6.53;;
16826;SDS011;8530;49.540;8.576;2022-10-17T00:23:03;12.37;;;8.43;;
16826;SDS011;8530;49.540;8.576;2022-10-17T00:25:29;9.70;;;7.30;;
16826;SDS011;8530;49.540;8.576;2022-10-17T00:27:57;18.70;;;8.17;;
16826;SDS011;8530;49.540;8.576;2022-10-17T00:30:25;9.50;;;7.87;;
16826;SDS011;8530;49.540;8.576;2022-10-17T00:32:52;12.60;;;8.17;;
16826;SDS011;8530;49.540;8.576;2022-10-17T00:35:18;18.33;;;7.13;;
16826;SDS011;8530;49.540;8.576;2022-10-17T00:37:45;31.77;;;8.00;;
16826;SDS011;8530;49.540;8.576;2022-10-17T00:40:12;9.20;;;7.30;;
16826;SDS011;8530;49.540;8.576;2022-10-17T00:42:39;11.53;;;6.43;;
16826;SDS011;8530;49.540;8.576;2022-10-17T00:45:09;12.63;;;6.93;;
16826;SDS011;8530;49.540;8.576;2022-10-17T00:47:42;9.30;;;6.77;;
16826;SDS011;8530;49.540;8.576;2022-10-17T00:50:12;9.30;;;6.70;;
16826;SDS011;8530;49.540;8.576;2022-10-17T00:52:40;16.30;;;6.40;;
16826;SDS011;8530;49.540;8.576;2022-10-17T00:55:11;9.47;;;7.20;;
16826;SDS011;8530;49.540;8.576;2022-10-17T00:57:41;8.50;;;6.40;;
16826;SDS011;8530;49.540;8.576;2022-10-17T01:00:11;12.87;;;7.37;;
16826;SDS011;8530;49.540;8.576;2022-10-17T01:02:39;6.83;;;6.13;;
16826;SDS011;8530;49.540;8.576;2022-10-17T01:05:08;7.90;;;6.30;;
16826;SDS011;8530;49.540;8.576;2022-10-17T01:07:35;18.03;;;5.63;;
16826;SDS011;8530;49.540;8.576;2022-10-17T01:10:05;10.60;;;6.33;;
16826;SDS011;8530;49.540;8.576;2022-10-17T01:12:35;7.43;;;5.87;;
16826;SDS011;8530;49.540;8.576;2022-10-17T01:15:09;11.23;;;5.97;;
16826;SDS011;8530;49.540;8.576;2022-10-17T01:17:42;5.37;;;4.30;;
16826;SDS011;8530;49.540;8.576;2022-10-17T01:20:28;9.87;;;5.47;;
16826;SDS011;8530;49.540;8.576;2022-10-17T01:23:37;9.30;;;5.87;;
16826;SDS011;8530;49.540;8.576;2022-10-17T01:26:21;8.50;;;5.93;;
16826;SDS011;8530;49.540;8.576;2022-10-17T01:29:00;11.53;;;5.43;;
16826;SDS011;8530;49.540;8.576;2022-10-17T01:31:50;8.20;;;5.30;;
16826;SDS011;8530;49.540;8.576;2022-10-17T01:34:24;9.97;;;5.13;;
16826;SDS011;8530;49.540;8.576;2022-10-17T01:36:58;7.67;;;5.70;;
16826;SDS011;8530;49.540;8.576;2022-10-17T01:39:28;5.80;;;5.10;;
16826;SDS011;8530;49.540;8.576;2022-10-17T01:42:06;9.30;;;5.20;;
16826;SDS011;8530;49.540;8.576;2022-10-17T01:44:41;11.90;;;5.67;;
16826;SDS011;8530;49.540;8.576;2022-10-17T01:47:16;7.10;;;6.23;;
16826;SDS011;8530;49.540;8.576;2022-10-17T01:49:45;6.43;;;5.30;;
16826;SDS011;8530;49.540;8.576;2022-10-17T01:52:17;6.83;;;4.80;;
16826;SDS011;8530;49.540;8.576;2022-10-17T01:54:47;9.20;;;4.70;;
16826;SDS011;8530;49.540;8.576;2022-10-17T01:57:19;17.47;;;5.03;;
16826;SDS011;8530;49.540;8.576;2022-10-17T01:59:54;6.10;;;5.50;;
16826;SDS011;8530;49.540;8.576;2022-10-17T02:02:23;5.57;;;4.87;;
16826;SDS011;8530;49.540;8.576;2022-10-17T02:04:52;7.33;;;5.33;;
16826;SDS011;8530;49.540;8.576;2022-10-17T02:07:21;8.30;;;5.37;;
16826;SDS011;8530;49.540;8.576;2022-10-17T02:09:48;15.13;;;7.57;;
16826;SDS011;8530;49.540;8.576;2022-10-17T02:12:18;5.20;;;4.70;;
16826;SDS011;8530;49.540;8.576;2022-10-17T02:15:07;7.90;;;5.17;;
16826;SDS011;8530;49.540;8.576;2022-10-17T02:17:46;6.70;;;4.80;;
16826;SDS011;8530;49.540;8.576;2022-10-17T02:20:23;6.00;;;5.40;;
16826;SDS011;8530;49.540;8.576;2022-10-17T02:22:55;8.10;;;5.17;;
16826;SDS011;8530;49.540;8.576;2022-10-17T02:25:30;7.67;;;4.83;;
16826;SDS011;8530;49.540;8.576;2022-10-17T02:28:05;6.93;;;5.30;;
16826;SDS011;8530;49.540;8.576;2022-10-17T02:30:42;7.80;;;4.93;;
16826;SDS011;8530;49.540;8.576;2022-10-17T02:33:17;6.87;;;4.80;;
16826;SDS011;8530;49.540;8.576;2022-10-17T02:35:48;8.10;;;5.00;;
16826;SDS011;8530;49.540;8.576;2022-10-17T02:38:18;5.03;;;4.40;;
16826;SDS011;8530;49.540;8.576;2022-10-17T02:40:46;9.27;;;5.77;;
16826;SDS011;8530;49.540;8.576;2022-10-17T02:43:16;7.93;;;5.87;;
16826;SDS011;8530;49.540;8.576;2022-10-17T02:45:44;6.40;;;5.37;;
16826;SDS011;8530;49.540;8.576;2022-10-17T02:48:13;6.50;;;5.53;;
16826;SDS011;8530;49.540;8.576;2022-10-17T02:50:48;7.03;;;5.00;;
16826;SDS011;8530;49.540;8.576;2022-10-17T02:53:24;6.30;;;5.03;;
16826;SDS011;8530;49.540;8.576;2022-10-17T02:55:59;6.70;;;6.07;;
16826;SDS011;8530;49.540;8.576;2022-10-17T02:58:31;9.73;;;5.63;;
16826;SDS011;8530;49.540;8.576;2022-10-17T03:01:00;6.80;;;5.77;;
16826;SDS011;8530;49.540;8.576;2022-10-17T03:03:30;6.97;;;5.13;;
16826;SDS011;8530;49.540;8.576;2022-10-17T03:05:57;7.30;;;4.83;;
16826;SDS011;8530;49.540;8.576;2022-10-17T03:08:24;7.53;;;5.00;;
16826;SDS011;8530;49.540;8.576;2022-10-17T03:10:51;9.83;;;5.53;;
16826;SDS011;8530;49.540;8.576;2022-10-17T03:13:18;9.60;;;5.70;;
16826;SDS011;8530;49.540;8.576;2022-10-17T03:15:45;6.70;;;4.87;;
16826;SDS011;8530;49.540;8.576;2022-10-17T03:18:12;6.03;;;5.03;;
16826;SDS011;8530;49.540;8.576;2022-10-17T03:20:40;6.93;;;4.83;;
16826;SDS011;8530;49.540;8.576;2022-10-17T03:23:07;9.10;;;4.93;;
16826;SDS011;8530;49.540;8.576;2022-10-17T03:25:34;5.27;;;4.77;;
16826;SDS011;8530;49.540;8.576;2022-10-17T03:28:01;5.10;;;4.60;;
16826;SDS011;8530;49.540;8.576;2022-10-17T03:30:29;8.53;;;4.70;;
16826;SDS011;8530;49.540;8.576;2022-10-17T03:32:57;5.60;;;5.00;;
16826;SDS011;8530;49.540;8.576;2022-10-17T03:35:24;20.83;;;6.33;;
16826;SDS011;8530;49.540;8.576;2022-10-17T03:37:53;10.67;;;5.90;;
16826;SDS011;8530;49.540;8.576;2022-10-17T03:40:21;5.83;;;4.63;;
16826;SDS011;8530;49.540;8.576;2022-10-17T03:42:48;9.03;;;6.10;;
16826;SDS011;8530;49.540;8.576;2022-10-17T03:45:15;11.53;;;5.70;;
16826;SDS011;8530;49.540;8.576;2022-10-17T03:47:41;5.10;;;4.60;;
16826;SDS011;8530;49.540;8.576;2022-10-17T03:50:08;6.43;;;5.63;;
16826;SDS011;8530;49.540;8.576;2022-10-17T03:52:35;6.30;;;5.17;;
16826;SDS011;8530;49.540;8.576;2022-10-17T03:55:03;4.73;;;4.23;;
16826;SDS011;8530;49.540;8.576;2022-10-17T03:57:33;8.07;;;5.20;;
16826;SDS011;8530;49.540;8.576;2022-10-17T04:00:00;10.93;;;6.37;;
16826;SDS011;8530;49.540;8.576;2022-10-17T04:02:27;8.20;;;5.63;;
16826;SDS011;8530;49.540;8.576;2022-10-17T04:04:54;11.73;;;5.50;;
16826;SDS011;8530;49.540;8.576;2022-10-17T04:07:21;5.23;;;4.73;;
16826;SDS011;8530;49.540;8.576;2022-10-17T04:09:48;8.03;;;5.43;;
16826;SDS011;8530;49.540;8.576;2022-10-17T04:12:16;6.33;;;5.43;;
16826;SDS011;8530;49.540;8.576;2022-10-17T04:14:43;22.03;;;6.43;;
16826;SDS011;8530;49.540;8.576;2022-10-17T04:17:10;12.60;;;5.27;;
16826;SDS011;8530;49.540;8.576;2022-10-17T04:19:37;6.00;;;5.50;;
16826;SDS011;8530;49.540;8.576;2022-10-17T04:22:04;6.10;;;5.50;;
16826;SDS011;8530;49.540;8.576;2022-10-17T04:24:32;11.00;;;6.00;;
16826;SDS011;8530;49.540;8.576;2022-10-17T04:26:59;5.97;;;5.37;;
16826;SDS011;8530;49.540;8.576;2022-10-17T04:29:27;6.80;;;6.10;;
16826;SDS011;8530;49.540;8.576;2022-10-17T04:31:54;8.30;;;5.70;;
16826;SDS011;8530;49.540;8.576;2022-10-17T04:34:21;25.93;;;7.17;;
16826;SDS011;8530;49.540;8.576;2022-10-17T04:36:48;9.80;;;6.73;;
16826;SDS011;8530;49.540;8.576;2022-10-17T04:39:16;14.13;;;5.93;;
16826;SDS011;8530;49.540;8.576;2022-10-17T04:41:43;8.07;;;6.10;;
16826;SDS011;8530;49.540;8.576;2022-10-17T04:44:10;13.70;;;6.77;;
16826;SDS011;8530;49.540;8.576;2022-10-17T04:46:38;6.40;;;5.77;;
16826;SDS011;8530;49.540;8.576;2022-10-17T04:49:05;8.00;;;5.77;;
16826;SDS011;8530;49.540;8.576;2022-10-17T04:51:32;7.23;;;5.10;;
16826;SDS011;8530;49.540;8.576;2022-10-17T04:53:58;7.97;;;6.30;;
16826;SDS011;8530;49.540;8.576;2022-10-17T04:56:25;7.10;;;6.23;;
16826;SDS011;8530;49.540;8.576;2022-10-17T04:58:52;12.07;;;7.00;;
16826;SDS011;8530;49.540;8.576;2022-10-17T05:01:19;8.10;;;5.57;;
16826;SDS011;8530;49.540;8.576;2022-10-17T05:03:48;14.93;;;6.23;;
16826;SDS011;8530;49.540;8.576;2022-10-17T05:06:16;15.87;;;7.07;;
16826;SDS011;8530;49.540;8.576;2022-10-17T05:08:44;17.20;;;6.70;;
16826;SDS011;8530;49.540;8.576;2022-10-17T05:11:15;6.37;;;5.50;;
16826;SDS011;8530;49.540;8.576;2022-10-17T05:13:43;8.87;;;5.83;;
16826;SDS011;8530;49.540;8.576;2022-10-17T05:16:10;14.83;;;6.03;;
16826;SDS011;8530;49.540;8.576;2022-10-17T05:18:37;6.63;;;5.77;;
16826;SDS011;8530;49.540;8.576;2022-10-17T05:21:05;5.80;;;5.00;;
16826;SDS011;8530;49.540;8.576;2022-10-17T05:23:32;11.73;;;6.30;;
16826;SDS011;8530;49.540;8.576;2022-10-17T05:25:58;8.50;;;5.67;;
16826;SDS011;8530;49.540;8.576;2022-10-17T05:28:25;7.13;;;5.47;;
16826;SDS011;8530;49.540;8.576;2022-10-17T05:30:52;12.13;;;7.50;;
16826;SDS011;8530;49.540;8.576;2022-10-17T05:33:21;9.07;;;7.80;;
16826;SDS011;8530;49.540;8.576;2022-10-17T05:35:48;20.67;;;7.50;;
16826;SDS011;8530;49.540;8.576;2022-10-17T05:38:17;6.83;;;5.43;;
16826;SDS011;8530;49.540;8.576;2022-10-17T05:40:44;10.30;;;7.00;;
16826;SDS011;8530;49.540;8.576;2022-10-17T05:43:10;15.33;;;8.53;;
16826;SDS011;8530;49.540;8.576;2022-10-17T05:45:38;11.57;;;7.27;;
16826;SDS011;8530;49.540;8.576;2022-10-17T05:48:06;11.33;;;7.00;;
16826;SDS011;8530;49.540;8.576;2022-10-17T05:50:33;16.43;;;7.53;;
16826;SDS011;8530;49.540;8.576;2022-10-17T05:53:00;10.73;;;7.07;;
16826;SDS011;8530;49.540;8.576;2022-10-17T05:55:28;10.90;;;5.60;;
16826;SDS011;8530;49.540;8.576;2022-10-17T05:57:55;15.20;;;7.10;;
16826;SDS011;8530;49.540;8.576;2022-10-17T06:00:22;13.20;;;7.60;;
16826;SDS011;8530;49.540;8.576;2022-10-17T06:02:49;21.27;;;7.20;;
16826;SDS011;8530;49.540;8.576;2022-10-17T06:05:16;12.10;;;7.50;;
16826;SDS011;8530;49.540;8.576;2022-10-17T06:07:43;15.93;;;6.23;;
16826;SDS011;8530;49.540;8.576;2022-10-17T06:10:10;10.90;;;6.13;;
16826;SDS011;8530;49.540;8.576;2022-10-17T06:12:41;7.93;;;6.63;;
16826;SDS011;8530;49.540;8.576;2022-10-17T06:15:09;8.47;;;5.07;;
16826;SDS011;8530;49.540;8.576;2022-10-17T06:17:37;12.43;;;7.30;;
16826;SDS011;8530;49.540;8.576;2022-10-17T06:20:04;12.67;;;7.37;;
16826;SDS011;8530;49.540;8.576;2022-10-17T06:22:32;22.37;;;7.47;;
16826;SDS011;8530;49.540;8.576;2022-10-17T06:24:59;18.77;;;7.30;;
16826;SDS011;8530;49.540;8.576;2022-10-17T06:27:26;10.20;;;6.70;;
16826;SDS011;8530;49.540;8.576;2022-10-17T06:29:54;17.77;;;7.70;;
16826;SDS011;8530;49.540;8.576;2022-10-17T06:32:20;14.83;;;6.67;;
16826;SDS011;8530;49.540;8.576;2022-10-17T06:34:47;9.40;;;6.73;;
16826;SDS011;8530;49.540;8.576;2022-10-17T06:37:14;12.67;;;6.73;;
16826;SDS011;8530;49.540;8.576;2022-10-17T06:39:41;8.47;;;5.33;;
16826;SDS011;8530;49.540;8.576;2022-10-17T06:42:08;7.80;;;5.50;;
16826;SDS011;8530;49.540;8.576;2022-10-17T06:44:34;8.60;;;5.90;;
16826;SDS011;8530;49.540;8.576;2022-10-17T06:47:05;6.60;;;5.20;;
16826;SDS011;8530;49.540;8.576;2022-10-17T06:49:32;8.40;;;6.47;;
16826;SDS011;8530;49.540;8.576;2022-10-17T06:51:59;9.20;;;5.80;;
16826;SDS011;8530;49.540;8.576;2022-10-17T06:54:26;14.20;;;6.30;;
16826;SDS011;8530;49.540;8.576;2022-10-17T06:56:53;12.50;;;7.03;;
16826;SDS011;8530;49.540;8.576;2022-10-17T06:59:21;9.03;;;6.23;;
16826;SDS011;8530;49.540;8.576;2022-10-17T07:01:50;13.83;;;6.70;;
16826;SDS011;8530;49.540;8.576;2022-10-17T07:04:20;10.20;;;7.17;;
16826;SDS011;8530;49.540;8.576;2022-10-17T07:06:47;11.37;;;8.07;;
16826;SDS011;8530;49.540;8.576;2022-10-17T07:09:14;10.10;;;7.83;;
16826;SDS011;8530;49.540;8.576;2022-10-17T07:11:41;9.00;;;7.60;;
16826;SDS011;8530;49.540;8.576;2022-10-17T07:14:07;9.70;;;7.97;;
16826;SDS011;8530;49.540;8.576;2022-10-17T07:16:36;7.80;;;6.30;;
16826;SDS011;8530;49.540;8.576;2022-10-17T07:19:06;9.20;;;7.70;;
16826;SDS011;8530;49.540;8.576;2022-10-17T07:21:35;13.23;;;6.93;;
16826;SDS011;8530;49.540;8.576;2022-10-17T07:24:02;8.00;;;6.97;;
16826;SDS011;8530;49.540;8.576;2022-10-17T07:26:31;10.80;;;9.57;;
16826;SDS011;8530;49.540;8.576;2022-10-17T07:28:58;9.23;;;7.90;;
16826;SDS011;8530;49.540;8.576;2022-10-17T07:31:25;8.00;;;7.20;;
16826;SDS011;8530;49.540;8.576;2022-10-17T07:33:52;10.57;;;7.43;;
16826;SDS011;8530;49.540;8.576;2022-10-17T07:36:19;8.23;;;6.90;;
16826;SDS011;8530;49.540;8.576;2022-10-17T07:38:47;9.13;;;7.23;;
16826;SDS011;8530;49.540;8.576;2022-10-17T07:41:13;9.30;;;8.30;;
16826;SDS011;8530;49.540;8.576;2022-10-17T07:43:40;8.67;;;7.67;;
16826;SDS011;8530;49.540;8.576;2022-10-17T07:46:07;9.87;;;6.33;;
16826;SDS011;8530;49.540;8.576;2022-10-17T07:48:41;12.00;;;6.03;;
16826;SDS011;8530;49.540;8.576;2022-10-17T07:51:08;12.27;;;6.03;;
16826;SDS011;8530;49.540;8.576;2022-10-17T07:53:35;6.40;;;5.70;;
16826;SDS011;8530;49.540;8.576;2022-10-17T07:56:04;10.73;;;6.30;;
16826;SDS011;8530;49.540;8.576;2022-10-17T07:58:33;7.67;;;5.23;;
16826;SDS011;8530;49.540;8.576;2022-10-17T08:01:00;10.43;;;5.80;;
16826;SDS011;8530;49.540;8.576;2022-10-17T08:03:28;8.03;;;5.30;;
16826;SDS011;8530;49.540;8.576;2022-10-17T08:05:56;7.20;;;5.30;;
16826;SDS011;8530;49.540;8.576;2022-10-17T08:08:23;13.07;;;5.10;;
16826;SDS011;8530;49.540;8.576;2022-10-17T08:10:50;12.37;;;4.23;;
16826;SDS011;8530;49.540;8.576;2022-10-17T08:13:19;8.10;;;4.40;;
16826;SDS011;8530;49.540;8.576;2022-10-17T08:15:46;9.33;;;4.37;;
16826;SDS011;8530;49.540;8.576;2022-10-17T08:18:13;8.60;;;3.60;;
16826;SDS011;8530;49.540;8.576;2022-10-17T08:20:40;8.67;;;3.90;;
16826;SDS011;8530;49.540;8.576;2022-10-17T08:23:07;8.43;;;3.17;;
16826;SDS011;8530;49.540;8.576;2022-10-17T08:25:36;5.90;;;3.17;;
16826;SDS011;8530;49.540;8.576;2022-10-17T08:28:03;11.47;;;3.30;;
16826;SDS011;8530;49.540;8.576;2022-10-17T08:30:32;8.63;;;2.93;;
16826;SDS011;8530;49.540;8.576;2022-10-17T08:32:59;5.63;;;3.13;;
16826;SDS011;8530;49.540;8.576;2022-10-17T08:35:25;4.90;;;3.87;;
16826;SDS011;8530;49.540;8.576;2022-10-17T08:37:52;5.70;;;3.47;;
16826;SDS011;8530;49.540;8.576;2022-10-17T08:40:19;12.20;;;4.03;;
16826;SDS011;8530;49.540;8.576;2022-10-17T08:42:57;7.43;;;4.17;;
16826;SDS011;8530;49.540;8.576;2022-10-17T08:45:37;5.87;;;3.40;;
16826;SDS011;8530;49.540;8.576;2022-10-17T08:48:08;11.03;;;4.10;;
16826;SDS011;8530;49.540;8.576;2022-10-17T08:50:39;5.50;;;2.63;;
16826;SDS011;8530;49.540;8.576;2022-10-17T08:53:11;5.80;;;3.40;;
16826;SDS011;8530;49.540;8.576;2022-10-17T08:55:43;8.33;;;3.70;;
16826;SDS011;8530;49.540;8.576;2022-10-17T08:58:12;6.27;;;3.67;;
16826;SDS011;8530;49.540;8.576;2022-10-17T09:00:45;5.50;;;3.10;;
16826;SDS011;8530;49.540;8.576;2022-10-17T09:03:21;7.23;;;3.30;;
16826;SDS011;8530;49.540;8.576;2022-10-17T09:06:07;6.20;;;3.30;;
16826;SDS011;8530;49.540;8.576;2022-10-17T09:08:41;8.73;;;2.90;;
16826;SDS011;8530;49.540;8.576;2022-10-17T09:11:17;8.27;;;3.60;;
16826;SDS011;8530;49.540;8.576;2022-10-17T09:13:57;12.83;;;3.53;;
16826;SDS011;8530;49.540;8.576;2022-10-17T09:16:37;6.93;;;4.37;;
16826;SDS011;8530;49.540;8.576;2022-10-17T09:19:25;3.40;;;2.97;;
16826;SDS011;8530;49.540;8.576;2022-10-17T09:21:57;10.53;;;2.90;;
16826;SDS011;8530;49.540;8.576;2022-10-17T09:24:29;6.80;;;2.90;;
16826;SDS011;8530;49.540;8.576;2022-10-17T09:27:05;3.93;;;2.80;;
16826;SDS011;8530;49.540;8.576;2022-10-17T09:29:42;5.73;;;3.27;;
16826;SDS011;8530;49.540;8.576;2022-10-17T09:32:16;6.80;;;3.53;;
16826;SDS011;8530;49.540;8.576;2022-10-17T09:34:50;6.87;;;3.20;;
16826;SDS011;8530;49.540;8.576;2022-10-17T09:37:17;4.20;;;2.93;;
16826;SDS011;8530;49.540;8.576;2022-10-17T09:39:47;5.53;;;3.40;;
16826;SDS011;8530;49.540;8.576;2022-10-17T09:42:15;5.47;;;3.03;;
16826;SDS011;8530;49.540;8.576;2022-10-17T09:44:46;9.23;;;3.63;;
16826;SDS011;8530;49.540;8.576;2022-10-17T09:47:20;6.73;;;3.23;;
16826;SDS011;8530;49.540;8.576;2022-10-17T09:49:51;15.23;;;3.97;;
16826;SDS011;8530;49.540;8.576;2022-10-17T09:52:19;5.67;;;3.40;;
16826;SDS011;8530;49.540;8.576;2022-10-17T09:54:51;5.83;;;3.33;;
16826;SDS011;8530;49.540;8.576;2022-10-17T09:57:20;8.77;;;3.77;;
16826;SDS011;8530;49.540;8.576;2022-10-17T09:59:55;11.80;;;3.50;;
16826;SDS011;8530;49.540;8.576;2022-10-17T10:02:25;4.77;;;3.60;;
16826;SDS011;8530;49.540;8.576;2022-10-17T10:04:58;3.90;;;3.40;;
16826;SDS011;8530;49.540;8.576;2022-10-17T10:07:27;7.00;;;3.10;;
16826;SDS011;8530;49.540;8.576;2022-10-17T10:09:55;5.00;;;3.30;;
16826;SDS011;8530;49.540;8.576;2022-10-17T10:12:28;5.70;;;3.80;;
16826;SDS011;8530;49.540;8.576;2022-10-17T10:14:57;4.70;;;3.13;;
16826;SDS011;8530;49.540;8.576;2022-10-17T10:17:32;4.93;;;3.03;;
16826;SDS011;8530;49.540;8.576;2022-10-17T10:20:02;4.83;;;3.83;;
16826;SDS011;8530;49.540;8.576;2022-10-17T10:23:03;3.93;;;3.10;;
16826;SDS011;8530;49.540;8.576;2022-10-17T10:25:37;11.33;;;5.63;;
16826;SDS011;8530;49.540;8.576;2022-10-17T10:28:14;8.57;;;3.80;;
16826;SDS011;8530;49.540;8.576;2022-10-17T10:30:44;10.43;;;4.77;;
16826;SDS011;8530;49.540;8.576;2022-10-17T10:33:17;12.83;;;3.50;;
16826;SDS011;8530;49.540;8.576;2022-10-17T10:35:51;9.20;;;3.20;;
16826;SDS011;8530;49.540;8.576;2022-10-17T10:38:20;9.10;;;3.07;;
16826;SDS011;8530;49.540;8.576;2022-10-17T10:40:47;7.00;;;2.70;;
16826;SDS011;8530;49.540;8.576;2022-10-17T10:43:19;4.60;;;2.73;;
16826;SDS011;8530;49.540;8.576;2022-10-17T10:45:49;7.93;;;3.47;;
16826;SDS011;8530;49.540;8.576;2022-10-17T10:48:19;7.00;;;3.10;;
16826;SDS011;8530;49.540;8.576;2022-10-17T10:50:48;5.43;;;2.63;;
16826;SDS011;8530;49.540;8.576;2022-10-17T10:53:24;4.00;;;2.87;;
16826;SDS011;8530;49.540;8.576;2022-10-17T10:56:00;5.00;;;3.87;;
16826;SDS011;8530;49.540;8.576;2022-10-17T10:58:38;7.33;;;2.60;;
16826;SDS011;8530;49.540;8.576;2022-10-17T11:01:12;3.10;;;2.60;;
16826;SDS011;8530;49.540;8.576;2022-10-17T11:03:50;6.23;;;2.70;;
16826;SDS011;8530;49.540;8.576;2022-10-17T11:06:22;3.60;;;3.07;;
16826;SDS011;8530;49.540;8.576;2022-10-17T11:08:56;14.40;;;3.10;;
16826;SDS011;8530;49.540;8.576;2022-10-17T11:11:32;5.47;;;2.57;;
16826;SDS011;8530;49.540;8.576;2022-10-17T11:14:04;4.73;;;3.57;;
16826;SDS011;8530;49.540;8.576;2022-10-17T11:16:38;6.30;;;3.67;;
16826;SDS011;8530;49.540;8.576;2022-10-17T11:19:12;9.40;;;3.27;;
16826;SDS011;8530;49.540;8.576;2022-10-17T11:21:44;12.03;;;2.77;;
16826;SDS011;8530;49.540;8.576;2022-10-17T11:24:15;5.40;;;3.40;;
16826;SDS011;8530;49.540;8.576;2022-10-17T11:26:48;4.10;;;3.30;;
16826;SDS011;8530;49.540;8.576;2022-10-17T11:29:19;4.13;;;3.37;;
16826;SDS011;8530;49.540;8.576;2022-10-17T11:31:50;10.37;;;2.93;;
16826;SDS011;8530;49.540;8.576;2022-10-17T11:34:21;5.83;;;3.67;;
16826;SDS011;8530;49.540;8.576;2022-10-17T11:36:52;6.37;;;3.73;;
16826;SDS011;8530;49.540;8.576;2022-10-17T11:39:26;7.47;;;3.27;;
16826;SDS011;8530;49.540;8.576;2022-10-17T11:41:57;5.53;;;2.63;;
16826;SDS011;8530;49.540;8.576;2022-10-17T11:44:31;3.00;;;2.43;;
16826;SDS011;8530;49.540;8.576;2022-10-17T11:47:01;4.70;;;2.57;;
16826;SDS011;8530;49.540;8.576;2022-10-17T11:49:33;8.83;;;3.73;;
16826;SDS011;8530;49.540;8.576;2022-10-17T11:52:06;7.50;;;3.37;;
16826;SDS011;8530;49.540;8.576;2022-10-17T11:54:41;15.90;;;4.00;;
16826;SDS011;8530;49.540;8.576;2022-10-17T11:57:18;4.23;;;3.30;;
16826;SDS011;8530;49.540;8.576;2022-10-17T11:59:59;4.30;;;2.73;;
16826;SDS011;8530;49.540;8.576;2022-10-17T12:02:44;3.40;;;2.80;;
16826;SDS011;8530;49.540;8.576;2022-10-17T12:05:20;10.40;;;3.53;;
16826;SDS011;8530;49.540;8.576;2022-10-17T12:07:53;6.47;;;3.70;;
16826;SDS011;8530;49.540;8.576;2022-10-17T12:10:31;3.70;;;3.03;;
16826;SDS011;8530;49.540;8.576;2022-10-17T12:19:25;4.63;;;2.50;;
16826;SDS011;8530;49.540;8.576;2022-10-17T12:21:59;7.93;;;4.07;;
16826;SDS011;8530;49.540;8.576;2022-10-17T12:24:41;5.80;;;3.33;;
16826;SDS011;8530;49.540;8.576;2022-10-17T12:27:20;5.17;;;2.93;;
16826;SDS011;8530;49.540;8.576;2022-10-17T12:30:14;5.30;;;2.47;;
16826;SDS011;8530;49.540;8.576;2022-10-17T12:32:53;9.30;;;2.73;;
16826;SDS011;8530;49.540;8.576;2022-10-17T12:35:24;6.60;;;3.03;;
16826;SDS011;8530;49.540;8.576;2022-10-17T12:38:00;3.43;;;2.60;;
16826;SDS011;8530;49.540;8.576;2022-10-17T12:40:50;7.47;;;3.10;;
16826;SDS011;8530;49.540;8.576;2022-10-17T12:43:35;6.13;;;2.73;;
16826;SDS011;8530;49.540;8.576;2022-10-17T12:46:10;7.70;;;2.83;;
16826;SDS011;8530;49.540;8.576;2022-10-17T12:49:00;3.00;;;2.43;;
16826;SDS011;8530;49.540;8.576;2022-10-17T12:51:29;3.57;;;2.77;;
16826;SDS011;8530;49.540;8.576;2022-10-17T12:54:38;4.30;;;2.30;;
16826;SDS011;8530;49.540;8.576;2022-10-17T12:57:12;6.73;;;3.40;;
16826;SDS011;8530;49.540;8.576;2022-10-17T12:59:44;5.27;;;2.63;;
16826;SDS011;8530;49.540;8.576;2022-10-17T13:02:13;8.70;;;4.47;;
16826;SDS011;8530;49.540;8.576;2022-10-17T13:04:45;3.53;;;2.33;;
16826;SDS011;8530;49.540;8.576;2022-10-17T13:07:15;12.53;;;3.60;;
16826;SDS011;8530;49.540;8.576;2022-10-17T13:09:47;10.43;;;2.97;;
16826;SDS011;8530;49.540;8.576;2022-10-17T13:12:17;7.60;;;2.93;;
16826;SDS011;8530;49.540;8.576;2022-10-17T13:14:48;4.77;;;2.57;;
16826;SDS011;8530;49.540;8.576;2022-10-17T13:17:20;7.17;;;2.97;;
16826;SDS011;8530;49.540;8.576;2022-10-17T13:19:51;4.20;;;2.83;;
16826;SDS011;8530;49.540;8.576;2022-10-17T13:22:19;3.77;;;2.70;;
16826;SDS011;8530;49.540;8.576;2022-10-17T13:24:50;5.53;;;4.20;;
16826;SDS011;8530;49.540;8.576;2022-10-17T13:27:22;4.20;;;3.17;;
16826;SDS011;8530;49.540;8.576;2022-10-17T13:29:51;6.10;;;3.10;;
16826;SDS011;8530;49.540;8.576;2022-10-17T13:32:20;8.07;;;2.80;;
16826;SDS011;8530;49.540;8.576;2022-10-17T13:35:03;8.93;;;3.30;;
16826;SDS011;8530;49.540;8.576;2022-10-17T13:37:31;4.60;;;3.00;;
16826;SDS011;8530;49.540;8.576;2022-10-17T13:40:01;3.27;;;2.67;;
16826;SDS011;8530;49.540;8.576;2022-10-17T13:42:29;6.30;;;3.43;;
16826;SDS011;8530;49.540;8.576;2022-10-17T13:45:02;10.83;;;3.50;;
16826;SDS011;8530;49.540;8.576;2022-10-17T13:47:31;3.70;;;2.80;;
16826;SDS011;8530;49.540;8.576;2022-10-17T13:50:01;7.80;;;2.90;;
16826;SDS011;8530;49.540;8.576;2022-10-17T13:52:31;3.73;;;2.47;;
16826;SDS011;8530;49.540;8.576;2022-10-17T13:55:07;6.20;;;2.40;;
16826;SDS011;8530;49.540;8.576;2022-10-17T13:57:39;5.73;;;2.73;;
16826;SDS011;8530;49.540;8.576;2022-10-17T14:00:10;7.70;;;3.43;;
16826;SDS011;8530;49.540;8.576;2022-10-17T14:02:44;8.33;;;3.20;;
16826;SDS011;8530;49.540;8.576;2022-10-17T14:05:13;2.77;;;2.47;;
16826;SDS011;8530;49.540;8.576;2022-10-17T14:07:41;3.27;;;2.80;;
16826;SDS011;8530;49.540;8.576;2022-10-17T14:10:18;5.07;;;2.77;;
16826;SDS011;8530;49.540;8.576;2022-10-17T14:12:48;5.33;;;2.70;;
16826;SDS011;8530;49.540;8.576;2022-10-17T14:15:16;4.07;;;2.90;;
16826;SDS011;8530;49.540;8.576;2022-10-17T14:17:43;8.70;;;2.80;;
16826;SDS011;8530;49.540;8.576;2022-10-17T14:20:15;3.90;;;2.40;;
16826;SDS011;8530;49.540;8.576;2022-10-17T14:22:45;7.97;;;2.90;;
16826;SDS011;8530;49.540;8.576;2022-10-17T14:25:27;3.27;;;2.80;;
16826;SDS011;8530;49.540;8.576;2022-10-17T14:27:59;3.40;;;2.67;;
16826;SDS011;8530;49.540;8.576;2022-10-17T14:30:32;7.27;;;3.03;;
16826;SDS011;8530;49.540;8.576;2022-10-17T14:33:01;6.50;;;3.07;;
16826;SDS011;8530;49.540;8.576;2022-10-17T14:35:30;4.70;;;3.13;;
16826;SDS011;8530;49.540;8.576;2022-10-17T14:37:58;11.37;;;3.47;;
16826;SDS011;8530;49.540;8.576;2022-10-17T14:40:32;6.60;;;2.90;;
16826;SDS011;8530;49.540;8.576;2022-10-17T14:46:28;16.27;;;3.33;;
16826;SDS011;8530;49.540;8.576;2022-10-17T14:49:01;6.93;;;3.10;;
16826;SDS011;8530;49.540;8.576;2022-10-17T14:51:30;4.63;;;2.90;;
16826;SDS011;8530;49.540;8.576;2022-10-17T14:54:02;10.80;;;3.30;;
16826;SDS011;8530;49.540;8.576;2022-10-17T14:56:38;4.63;;;2.40;;
16826;SDS011;8530;49.540;8.576;2022-10-17T14:59:06;18.57;;;3.67;;
16826;SDS011;8530;49.540;8.576;2022-10-17T15:01:35;7.70;;;3.17;;
16826;SDS011;8530;49.540;8.576;2022-10-17T15:04:01;3.47;;;2.87;;
16826;SDS011;8530;49.540;8.576;2022-10-17T15:06:29;6.50;;;2.70;;
16826;SDS011;8530;49.540;8.576;2022-10-17T15:08:58;6.37;;;3.20;;
16826;SDS011;8530;49.540;8.576;2022-10-17T15:11:25;6.90;;;3.40;;
16826;SDS011;8530;49.540;8.576;2022-10-17T15:13:54;6.47;;;3.00;;
16826;SDS011;8530;49.540;8.576;2022-10-17T15:16:21;13.67;;;3.40;;
16826;SDS011;8530;49.540;8.576;2022-10-17T15:18:49;6.53;;;3.07;;
16826;SDS011;8530;49.540;8.576;2022-10-17T15:21:17;8.87;;;4.10;;
16826;SDS011;8530;49.540;8.576;2022-10-17T15:23:47;6.90;;;3.50;;
16826;SDS011;8530;49.540;8.576;2022-10-17T15:26:14;6.20;;;2.83;;
16826;SDS011;8530;49.540;8.576;2022-10-17T15:28:43;7.90;;;3.30;;